Columbus Municipal Airport
KOLU : now visible

Airfield :











YOU CAN JOIN US ON...

 
LOGIN :

Register | Disclaimer

   EN    FR    IT 

 









Legend :    VFR   Marginal VFR   IFR   Intensive IFR   Very Intensive IFR
Visi :
Ceiling :
>= 8 km
>= 3000ft
5 to 8 km
1000 to 3000 ft
1500m to 5 km
500 to 1000 ft
800 to 1500m
200 to 500 ft
< 800m
< 200 ft
Symbols :   Thunderstorms  Fog  Heavy snow  Heavy precipitations  Wind > 20 kt






- Airport Elevation : 1447 ft


KOLU - Columbus Municipal

CURRENT METAR :
  • 080756Z AUTO 23007KT 10SM CLR 03/00 A2981 RMK AO2 SLP104 T00330000

EXPIRED METARs :
  • 080656Z AUTO 21006KT 10SM CLR 04/M01 A2982 RMK AO2 SLP108 T00391006
  • 080556Z AUTO 22009KT 10SM CLR 04/M01 A2984 RMK AO2 SLP112 T00441006 10078 20044 401061011 56013

TAF N/A



MET'MAP, your aeronautical weather chart ! - Copyright ORBIFLY December 2007 - Disclaimer

ORBIFLY MET'MAP TEAM :

Programming & Development : Alexandra Zaïnal
Concept & original design : Baudouin d'Aumeries
Assistance for programming : Marc-Olivier Méhu
Technical & hardware support : Manuel Goepfert

Contact : metmap@orbifly.com




SOURCES & CREDITS :

   NOAA       Earth
Advisory